Time;durP1;ratioP1;P1;durP2;ratioP2;P2;SDS_P1;SDS_P2;PMS_P1;PMS_P2;Temp;Humidity;BMP_temperature;BMP_pressure;BME280_temperature;BME280_humidity;BME280_pressure;Samples;Min_cycle;Max_cycle;Signal;HPM_P1;HPM_P2
2020/12/12 00:00:13;;;;;;;11.15;10.05;;;7.40;99.90;;;;;;2122296;27;20024;-78
2020/12/12 00:01:14;;;;;;;10.98;9.88;;;7.40;99.90;;;;;;2121944;27;20015;-77
2020/12/12 00:02:15;;;;;;;10.68;9.68;;;7.40;99.90;;;;;;2112499;28;20023;-78
2020/12/12 00:03:15;;;;;;;11.90;10.73;;;7.40;99.90;;;;;;2113183;28;20495;-77
2020/12/12 00:04:16;;;;;;;10.57;9.48;;;7.40;99.90;;;;;;2122433;27;20023;-78
2020/12/12 00:05:17;;;;;;;10.27;9.35;;;7.40;99.90;;;;;;2122258;27;20640;-79
2020/12/12 00:06:21;;;;;;;11.10;10.07;;;7.40;99.90;;;;;;2122235;27;20511;-76
2020/12/12 00:07:22;;;;;;;11.10;10.00;;;7.40;99.90;;;;;;2121989;27;20019;-78
2020/12/12 00:08:23;;;;;;;11.18;10.07;;;7.40;99.90;;;;;;2122080;27;20115;-76
2020/12/12 00:09:23;;;;;;;11.40;10.30;;;7.40;99.90;;;;;;2122092;27;20027;-78
2020/12/12 00:10:26;;;;;;;10.93;9.90;;;7.40;99.90;;;;;;2122263;27;20103;-77
2020/12/12 00:11:26;;;;;;;10.98;9.88;;;7.40;99.90;;;;;;2121659;27;20030;-76
2020/12/12 00:12:27;;;;;;;10.95;9.95;;;7.40;99.90;;;;;;2113014;28;20028;-77
2020/12/12 00:13:27;;;;;;;11.30;10.25;;;7.40;99.90;;;;;;2104638;28;20533;-77
2020/12/12 00:14:28;;;;;;;11.57;10.48;;;7.40;99.90;;;;;;2113229;28;20082;-78
2020/12/12 00:15:28;;;;;;;11.25;10.15;;;7.40;99.90;;;;;;2112787;28;20097;-75
2020/12/12 00:16:29;;;;;;;11.48;10.38;;;7.50;99.90;;;;;;2113159;28;20048;-78
2020/12/12 00:17:30;;;;;;;11.05;9.73;;;7.50;99.90;;;;;;2113054;28;20020;-76
2020/12/12 00:18:30;;;;;;;10.52;9.48;;;7.50;99.90;;;;;;2122214;27;20061;-78
2020/12/12 00:19:31;;;;;;;11.45;10.35;;;7.50;99.90;;;;;;2122016;27;20020;-77
2020/12/12 00:20:31;;;;;;;10.30;9.30;;;7.50;99.90;;;;;;2122059;27;20586;-76
2020/12/12 00:21:32;;;;;;;10.68;9.63;;;7.50;99.90;;;;;;2112389;28;20051;-79
2020/12/12 00:22:32;;;;;;;10.25;9.35;;;7.50;99.90;;;;;;2104754;28;20066;-76
2020/12/12 00:23:33;;;;;;;10.77;9.70;;;7.50;99.90;;;;;;2113003;28;20081;-76
2020/12/12 00:24:33;;;;;;;10.55;9.43;;;7.50;99.90;;;;;;2113084;28;20020;-79
2020/12/12 00:25:34;;;;;;;9.52;8.63;;;7.50;99.90;;;;;;2113216;28;20067;-77
2020/12/12 00:26:35;;;;;;;10.32;9.43;;;7.50;99.90;;;;;;2112764;28;20020;-77
2020/12/12 00:27:35;;;;;;;11.38;10.32;;;7.60;99.90;;;;;;2104602;28;20525;-77
2020/12/12 00:28:36;;;;;;;11.75;9.38;;;7.50;99.90;;;;;;2113127;28;20024;-78
2020/12/12 00:29:36;;;;;;;10.20;9.23;;;7.50;99.90;;;;;;2112864;28;20479;-76
2020/12/12 00:30:37;;;;;;;10.65;9.55;;;7.60;99.90;;;;;;2113041;28;20496;-78
2020/12/12 00:31:39;;;;;;;10.55;9.60;;;7.60;99.90;;;;;;2121760;27;20031;-77
2020/12/12 00:32:39;;;;;;;10.55;9.50;;;7.50;99.90;;;;;;2121560;27;20019;-75
2020/12/12 00:33:40;;;;;;;9.68;8.68;;;7.60;99.90;;;;;;2122121;27;20525;-76
2020/12/12 00:34:40;;;;;;;10.63;9.45;;;7.50;99.90;;;;;;2112975;28;20031;-76
2020/12/12 00:35:41;;;;;;;10.73;9.07;;;7.60;99.90;;;;;;2104431;28;20054;-77
2020/12/12 00:36:42;;;;;;;11.02;10.02;;;7.50;99.90;;;;;;2112755;28;20055;-78
2020/12/12 00:37:43;;;;;;;11.25;9.63;;;7.60;99.90;;;;;;2112671;28;20015;-77
2020/12/12 00:38:43;;;;;;;10.15;9.15;;;7.60;99.90;;;;;;2112772;28;20051;-77
2020/12/12 00:39:45;;;;;;;9.57;8.68;;;7.60;99.90;;;;;;2121247;27;20399;-80
2020/12/12 00:40:46;;;;;;;9.52;8.55;;;7.60;99.90;;;;;;2121442;27;20491;-78
2020/12/12 00:41:47;;;;;;;10.63;9.63;;;7.60;99.90;;;;;;2112862;28;20026;-78
2020/12/12 00:42:47;;;;;;;10.20;9.30;;;7.60;99.90;;;;;;2112559;28;20062;-76
2020/12/12 00:43:48;;;;;;;10.48;9.38;;;7.60;99.90;;;;;;2122077;27;20026;-79
2020/12/12 00:44:48;;;;;;;10.30;9.30;;;7.60;99.90;;;;;;2121884;27;20023;-79
2020/12/12 00:45:49;;;;;;;10.27;9.15;;;7.60;99.90;;;;;;2122070;27;20027;-80
2020/12/12 00:46:49;;;;;;;10.50;9.55;;;7.70;99.90;;;;;;2121984;27;20376;-79
2020/12/12 00:47:50;;;;;;;10.77;9.70;;;7.70;99.90;;;;;;2122022;27;20145;-77
2020/12/12 00:48:51;;;;;;;9.88;8.93;;;7.70;99.90;;;;;;2121045;27;20026;-77
2020/12/12 00:49:51;;;;;;;10.52;9.52;;;7.60;99.90;;;;;;2122015;27;20127;-77
2020/12/12 00:50:52;;;;;;;11.30;10.23;;;7.70;99.90;;;;;;2121960;27;20394;-76
2020/12/12 00:51:52;;;;;;;11.20;10.10;;;7.70;99.90;;;;;;2112275;28;20104;-78
2020/12/12 00:52:53;;;;;;;10.32;9.32;;;7.70;99.90;;;;;;2112487;28;20034;-75
2020/12/12 00:53:54;;;;;;;10.30;9.23;;;7.70;99.90;;;;;;2121985;27;20023;-76
2020/12/12 00:54:54;;;;;;;10.82;9.77;;;7.70;99.90;;;;;;2121858;27;20441;-76
2020/12/12 00:55:55;;;;;;;10.50;9.50;;;7.70;99.90;;;;;;2112851;28;20106;-78
2020/12/12 00:56:56;;;;;;;11.38;10.27;;;7.70;99.90;;;;;;2112763;28;20375;-80
2020/12/12 00:57:56;;;;;;;11.45;10.30;;;7.70;99.90;;;;;;2121716;27;20047;-78
2020/12/12 00:58:57;;;;;;;11.05;9.98;;;7.80;99.90;;;;;;2112337;28;20024;-76
2020/12/12 00:59:58;;;;;;;10.90;9.80;;;7.70;99.90;;;;;;2112731;28;20068;-79
2020/12/12 01:00:58;;;;;;;10.68;9.57;;;7.70;99.90;;;;;;2121701;27;20456;-78
2020/12/12 01:01:59;;;;;;;10.20;9.20;;;7.80;99.90;;;;;;2121189;27;20022;-79
2020/12/12 01:03:03;;;;;;;10.60;9.50;;;7.70;99.90;;;;;;2121810;27;20383;-76
2020/12/12 01:04:04;;;;;;;10.57;9.43;;;7.80;99.90;;;;;;2122021;27;20030;-77
2020/12/12 01:05:05;;;;;;;11.65;10.55;;;7.70;99.90;;;;;;2112530;28;20023;-77
2020/12/12 01:06:10;;;;;;;10.38;9.38;;;7.70;99.90;;;;;;2112797;28;20051;-76
2020/12/12 01:07:10;;;;;;;10.70;9.60;;;7.70;99.90;;;;;;2121469;27;20011;-76
2020/12/12 01:08:11;;;;;;;10.63;9.63;;;7.70;99.90;;;;;;2112662;28;20024;-76
2020/12/12 01:09:11;;;;;;;10.07;9.10;;;7.70;99.90;;;;;;2104260;28;20016;-76
2020/12/12 01:10:12;;;;;;;11.13;10.02;;;7.70;99.90;;;;;;2112728;28;20031;-77
2020/12/12 01:11:14;;;;;;;10.40;9.40;;;7.70;99.90;;;;;;2112497;28;20451;-78
2020/12/12 01:12:17;;;;;;;10.75;9.65;;;7.70;99.90;;;;;;2112477;28;20044;-76
2020/12/12 01:13:18;;;;;;;11.30;10.20;;;7.70;99.90;;;;;;2121890;27;20024;-78
2020/12/12 01:14:18;;;;;;;10.32;9.32;;;7.70;99.90;;;;;;2112604;28;20031;-79
2020/12/12 01:15:20;;;;;;;11.45;9.48;;;7.70;99.90;;;;;;2112626;28;20135;-77
2020/12/12 01:16:20;;;;;;;11.75;10.55;;;7.70;99.90;;;;;;2112629;28;20107;-77
2020/12/12 01:17:21;;;;;;;10.98;9.57;;;7.70;99.90;;;;;;2112422;28;20020;-78
2020/12/12 01:18:22;;;;;;;11.13;10.07;;;7.80;99.90;;;;;;2112312;28;20076;-77
2020/12/12 01:19:22;;;;;;;10.40;9.40;;;7.80;99.90;;;;;;2112807;28;20028;-75
2020/12/12 01:20:23;;;;;;;10.35;9.27;;;7.80;99.90;;;;;;2112484;28;20076;-76
2020/12/12 01:21:25;;;;;;;10.85;9.73;;;7.80;99.90;;;;;;2112168;28;20466;-77
2020/12/12 01:22:25;;;;;;;11.75;10.50;;;7.80;99.90;;;;;;2112419;28;20460;-78
2020/12/12 01:23:26;;;;;;;10.48;9.48;;;7.80;99.90;;;;;;2121521;27;20034;-78
2020/12/12 01:24:26;;;;;;;11.27;10.23;;;7.80;99.90;;;;;;2121445;27;20097;-77
2020/12/12 01:25:27;;;;;;;10.93;9.82;;;7.80;99.90;;;;;;2112510;28;20054;-79
2020/12/12 01:26:28;;;;;;;10.45;9.45;;;7.80;99.90;;;;;;2112516;28;20028;-78
2020/12/12 01:27:28;;;;;;;11.35;10.25;;;7.80;99.90;;;;;;2121631;27;20441;-77
2020/12/12 01:28:29;;;;;;;10.90;9.80;;;7.80;99.90;;;;;;2112182;28;20522;-76
2020/12/12 01:29:29;;;;;;;10.48;9.38;;;7.80;99.90;;;;;;2112705;28;20064;-76
2020/12/12 01:30:30;;;;;;;10.20;9.20;;;7.90;99.90;;;;;;2121603;27;20030;-78
2020/12/12 01:31:31;;;;;;;11.07;9.93;;;7.80;99.90;;;;;;2112093;28;20028;-78
2020/12/12 01:32:31;;;;;;;10.38;9.35;;;7.90;99.90;;;;;;2112718;28;20437;-75
2020/12/12 01:33:32;;;;;;;12.02;10.65;;;7.90;99.90;;;;;;2121614;27;20486;-76
2020/12/12 01:34:33;;;;;;;10.38;9.38;;;7.90;99.90;;;;;;2121463;27;20370;-78
2020/12/12 01:35:33;;;;;;;10.45;9.30;;;7.90;99.90;;;;;;2121689;27;20019;-76
2020/12/12 01:36:34;;;;;;;10.88;9.88;;;7.90;99.90;;;;;;2112097;28;20019;-80
2020/12/12 01:37:34;;;;;;;10.70;9.70;;;7.90;99.90;;;;;;2112234;28;20433;-79
2020/12/12 01:38:35;;;;;;;11.77;10.45;;;7.90;99.90;;;;;;2112280;28;20471;-77
2020/12/12 01:39:36;;;;;;;11.55;10.48;;;7.90;99.90;;;;;;2112298;28;20031;-77
2020/12/12 01:40:37;;;;;;;10.55;9.48;;;7.90;99.90;;;;;;2121767;27;20023;-77
2020/12/12 01:41:37;;;;;;;10.93;9.93;;;7.90;99.90;;;;;;2121306;27;20497;-77
2020/12/12 01:42:38;;;;;;;10.77;9.68;;;7.90;99.90;;;;;;2121375;27;20068;-76
2020/12/12 01:43:39;;;;;;;10.32;9.35;;;7.90;99.90;;;;;;2121557;27;20064;-79
2020/12/12 01:44:39;;;;;;;11.77;10.57;;;7.90;99.90;;;;;;2121361;27;20015;-78
2020/12/12 01:45:40;;;;;;;10.82;9.73;;;7.90;99.90;;;;;;2121507;27;20690;-78
2020/12/12 01:46:41;;;;;;;11.68;10.48;;;7.90;99.90;;;;;;2121207;27;20098;-76
2020/12/12 01:47:41;;;;;;;10.50;9.50;;;7.90;99.90;;;;;;2121469;27;20485;-78
2020/12/12 01:48:42;;;;;;;11.93;10.73;;;7.90;99.90;;;;;;2112297;28;20495;-76
2020/12/12 01:49:42;;;;;;;10.80;9.80;;;7.90;99.90;;;;;;2103723;28;20093;-79
2020/12/12 01:50:44;;;;;;;11.40;10.30;;;7.90;99.90;;;;;;2112036;28;20024;-76
2020/12/12 01:51:45;;;;;;;10.50;9.50;;;7.90;99.90;;;;;;2121071;27;20383;-78
2020/12/12 01:52:50;;;;;;;10.70;9.55;;;7.90;99.90;;;;;;2121229;27;20102;-78
2020/12/12 01:53:57;;;;;;;12.45;10.25;;;7.90;99.90;;;;;;2121599;27;20506;-78
2020/12/12 01:54:59;;;;;;;11.40;10.30;;;7.90;99.90;;;;;;2121578;27;20098;-78
2020/12/12 01:55:59;;;;;;;12.25;11.05;;;7.90;99.90;;;;;;2111937;28;20023;-78
2020/12/12 01:57:03;;;;;;;10.65;9.65;;;7.90;99.90;;;;;;2112327;28;20016;-79
2020/12/12 01:58:03;;;;;;;10.10;9.20;;;7.90;99.90;;;;;;2121653;27;20039;-78
2020/12/12 01:59:04;;;;;;;10.27;9.27;;;7.90;99.90;;;;;;2121299;27;20023;-79
2020/12/12 02:00:05;;;;;;;11.85;10.73;;;7.90;99.90;;;;;;2120962;27;20111;-77
2020/12/12 02:01:08;;;;;;;10.77;9.73;;;7.90;99.90;;;;;;2121386;27;20506;-77
2020/12/12 02:02:11;;;;;;;10.38;9.38;;;7.90;99.90;;;;;;2120888;27;20019;-77
2020/12/12 02:03:13;;;;;;;11.02;9.95;;;7.90;99.90;;;;;;2112311;28;20176;-78
2020/12/12 02:04:18;;;;;;;10.75;9.75;;;7.90;99.90;;;;;;2112465;28;20039;-78
2020/12/12 02:05:39;;;;;;;11.07;9.98;;;7.90;99.90;;;;;;2112461;28;20042;-77
2020/12/12 02:06:39;;;;;;;10.82;9.82;;;7.90;99.90;;;;;;2115584;28;20026;-76
2020/12/12 02:07:40;;;;;;;10.95;9.85;;;7.90;99.90;;;;;;2111840;28;20047;-78
2020/12/12 02:08:41;;;;;;;10.95;9.85;;;7.90;99.90;;;;;;2112399;28;20098;-77
2020/12/12 02:09:42;;;;;;;10.55;9.45;;;7.90;99.90;;;;;;2121338;28;20027;-79
2020/12/12 02:10:47;;;;;;;9.85;9.00;;;7.90;99.90;;;;;;2121377;28;20110;-76
2020/12/12 02:11:48;;;;;;;11.63;10.13;;;7.90;99.90;;;;;;2120881;28;20499;-76
2020/12/12 02:12:49;;;;;;;10.60;9.50;;;7.90;99.90;;;;;;2121349;28;20023;-78
2020/12/12 02:13:50;;;;;;;10.65;9.63;;;7.90;99.90;;;;;;2121486;28;20632;-77
2020/12/12 02:14:51;;;;;;;10.30;9.30;;;7.90;99.90;;;;;;2112060;28;20028;-76
2020/12/12 02:15:51;;;;;;;11.10;10.15;;;7.90;99.90;;;;;;2112525;28;20099;-79
2020/12/12 02:16:52;;;;;;;10.35;9.35;;;7.90;99.90;;;;;;2121527;28;20050;-80
2020/12/12 02:17:52;;;;;;;11.00;9.90;;;7.90;99.90;;;;;;2121311;28;20015;-78
2020/12/12 02:18:53;;;;;;;11.52;10.40;;;7.90;99.90;;;;;;2121366;28;20023;-77
2020/12/12 02:19:53;;;;;;;11.82;10.65;;;8.00;99.90;;;;;;2112363;28;20026;-78
2020/12/12 02:20:59;;;;;;;11.18;10.02;;;8.00;99.90;;;;;;2112267;28;20016;-77
2020/12/12 02:22:01;;;;;;;11.20;10.05;;;7.90;99.90;;;;;;2121119;28;20486;-79
2020/12/12 02:23:01;;;;;;;11.63;10.52;;;7.90;99.90;;;;;;2121667;28;20416;-79
2020/12/12 02:24:02;;;;;;;11.88;10.88;;;7.90;99.90;;;;;;2121470;28;20053;-77
2020/12/12 02:25:02;;;;;;;11.88;10.48;;;7.90;99.90;;;;;;2121244;28;20355;-78
2020/12/12 02:26:04;;;;;;;12.00;10.45;;;7.90;99.90;;;;;;2121593;28;20027;-77
2020/12/12 02:27:07;;;;;;;11.98;10.80;;;7.90;99.90;;;;;;2121201;28;20291;-78
2020/12/12 02:28:11;;;;;;;11.82;10.63;;;7.90;99.90;;;;;;2121536;28;20049;-76
2020/12/12 02:29:12;;;;;;;11.93;10.73;;;7.90;99.90;;;;;;2121329;28;20015;-79
2020/12/12 02:30:13;;;;;;;11.55;10.45;;;7.90;99.90;;;;;;2121495;28;20054;-77
2020/12/12 02:31:13;;;;;;;11.40;10.30;;;7.80;99.90;;;;;;2121173;28;20024;-77
2020/12/12 02:32:14;;;;;;;11.68;10.50;;;7.80;99.90;;;;;;2121143;28;20231;-76
2020/12/12 02:33:15;;;;;;;12.18;10.98;;;7.80;99.90;;;;;;2121053;28;20030;-76
2020/12/12 02:34:16;;;;;;;12.75;11.45;;;7.80;99.90;;;;;;2121230;28;20030;-76
2020/12/12 02:35:18;;;;;;;13.00;11.70;;;7.80;99.90;;;;;;2120586;28;20031;-78
2020/12/12 02:36:18;;;;;;;12.88;11.10;;;7.80;99.90;;;;;;2121431;28;20030;-77
2020/12/12 02:37:19;;;;;;;11.93;10.73;;;7.80;99.90;;;;;;2121083;28;20042;-78
2020/12/12 02:38:19;;;;;;;12.70;11.30;;;7.80;99.90;;;;;;2121416;28;20023;-76
2020/12/12 02:39:20;;;;;;;12.48;11.38;;;7.80;99.90;;;;;;2121083;28;20023;-78
2020/12/12 02:40:20;;;;;;;12.38;11.25;;;7.80;99.90;;;;;;2121242;28;20415;-78
2020/12/12 02:41:21;;;;;;;12.65;11.48;;;7.70;99.90;;;;;;2120848;28;20059;-77
2020/12/12 02:42:21;;;;;;;11.45;10.38;;;7.80;99.90;;;;;;2121150;28;20019;-76
2020/12/12 02:43:22;;;;;;;12.15;10.90;;;7.70;99.90;;;;;;2121092;28;20112;-76
2020/12/12 02:44:22;;;;;;;13.23;11.80;;;7.80;99.90;;;;;;2112147;28;20028;-77
2020/12/12 02:45:23;;;;;;;13.63;12.23;;;7.80;99.90;;;;;;2111971;28;20039;-78
2020/12/12 02:46:24;;;;;;;13.18;11.77;;;7.80;99.90;;;;;;2112071;28;20039;-78
2020/12/12 02:47:26;;;;;;;12.43;11.15;;;7.80;99.90;;;;;;2112042;28;20240;-77
2020/12/12 02:48:27;;;;;;;13.27;11.93;;;7.80;99.90;;;;;;2121578;28;20020;-79
2020/12/12 02:49:27;;;;;;;12.25;11.02;;;7.80;99.90;;;;;;2121099;28;20091;-76
2020/12/12 02:50:28;;;;;;;12.23;11.02;;;7.80;99.90;;;;;;2121335;28;20038;-78
2020/12/12 02:51:29;;;;;;;14.95;12.95;;;7.80;99.90;;;;;;2120645;28;20047;-77
2020/12/12 02:52:29;;;;;;;13.32;11.88;;;7.80;99.90;;;;;;2119228;28;20035;-78
2020/12/12 02:53:30;;;;;;;12.98;11.73;;;7.80;99.90;;;;;;2120212;28;20054;-79
2020/12/12 02:54:30;;;;;;;13.40;11.98;;;7.80;99.90;;;;;;2121183;28;20463;-76
2020/12/12 02:55:31;;;;;;;15.25;12.45;;;7.80;99.90;;;;;;2120864;28;20023;-79
2020/12/12 02:56:32;;;;;;;13.40;11.95;;;7.80;99.90;;;;;;2121237;28;20028;-75
2020/12/12 02:57:33;;;;;;;13.48;12.07;;;7.80;99.90;;;;;;2111841;28;20019;-77
2020/12/12 02:58:34;;;;;;;13.38;11.98;;;7.80;99.90;;;;;;2112119;28;20065;-76
2020/12/12 02:59:34;;;;;;;14.00;12.52;;;7.80;99.90;;;;;;2111767;28;20072;-77
2020/12/12 03:00:35;;;;;;;13.48;12.15;;;7.80;99.90;;;;;;2112297;28;20056;-77
2020/12/12 03:01:39;;;;;;;12.50;11.30;;;7.80;99.90;;;;;;2121467;28;20020;-77
2020/12/12 03:02:40;;;;;;;13.00;11.68;;;7.80;99.90;;;;;;2121778;28;20012;-76
2020/12/12 03:03:40;;;;;;;13.98;12.57;;;7.80;99.90;;;;;;2122028;28;20016;-76
2020/12/12 03:04:41;;;;;;;13.98;12.57;;;7.80;99.90;;;;;;2121953;28;20506;-76
2020/12/12 03:05:41;;;;;;;14.23;12.80;;;7.80;99.90;;;;;;2121818;28;20019;-76
2020/12/12 03:06:44;;;;;;;14.50;11.73;;;7.80;99.90;;;;;;2121952;28;20148;-75
2020/12/12 03:07:44;;;;;;;13.60;12.30;;;7.80;99.90;;;;;;2121878;28;20016;-76
2020/12/12 03:08:45;;;;;;;14.77;12.68;;;7.80;99.90;;;;;;2121708;28;20070;-77
2020/12/12 03:09:46;;;;;;;13.40;12.00;;;7.80;99.90;;;;;;2122005;28;20030;-78
2020/12/12 03:10:46;;;;;;;12.52;11.23;;;7.80;99.90;;;;;;2122135;28;20015;-76
2020/12/12 03:11:47;;;;;;;13.02;11.05;;;7.80;99.90;;;;;;2121424;27;20015;-76
2020/12/12 03:12:48;;;;;;;13.15;11.85;;;7.80;99.90;;;;;;2123199;27;20027;-76
2020/12/12 03:13:48;;;;;;;13.73;12.35;;;7.90;99.90;;;;;;2123340;27;20103;-77
2020/12/12 03:14:49;;;;;;;13.05;11.75;;;7.90;99.90;;;;;;2123082;27;20023;-78
2020/12/12 03:15:49;;;;;;;13.20;11.85;;;7.90;99.90;;;;;;2113575;28;20444;-76
2020/12/12 03:16:50;;;;;;;14.30;12.38;;;7.90;99.90;;;;;;2114353;28;20101;-77
2020/12/12 03:17:50;;;;;;;12.82;11.60;;;7.90;99.90;;;;;;2123336;27;20454;-78
2020/12/12 03:18:51;;;;;;;14.52;11.95;;;7.90;99.90;;;;;;2114247;28;20031;-78
2020/12/12 03:19:52;;;;;;;14.60;11.68;;;7.90;99.90;;;;;;2114451;28;20087;-77
2020/12/12 03:20:52;;;;;;;13.38;11.98;;;7.90;99.90;;;;;;2114332;28;20023;-77
2020/12/12 03:21:53;;;;;;;13.15;11.85;;;7.90;99.90;;;;;;2113948;28;20020;-78
2020/12/12 03:22:54;;;;;;;15.30;12.43;;;7.90;99.90;;;;;;2114391;28;20027;-77
2020/12/12 03:23:54;;;;;;;13.85;12.45;;;7.90;99.90;;;;;;2114329;28;20035;-77
2020/12/12 03:24:55;;;;;;;13.65;12.35;;;7.90;99.90;;;;;;2123231;27;20054;-76
2020/12/12 03:25:55;;;;;;;12.98;11.68;;;7.90;99.90;;;;;;2123526;27;20019;-76
2020/12/12 03:26:56;;;;;;;12.32;11.10;;;7.90;99.90;;;;;;2123260;27;20019;-77
2020/12/12 03:27:56;;;;;;;12.30;10.82;;;7.90;99.90;;;;;;2113937;28;20074;-77
2020/12/12 03:28:57;;;;;;;12.68;11.32;;;7.90;99.90;;;;;;2105907;28;20093;-76
2020/12/12 03:29:57;;;;;;;12.70;11.40;;;7.90;99.90;;;;;;2114252;28;20038;-76
2020/12/12 03:30:58;;;;;;;12.98;11.68;;;7.90;99.90;;;;;;2123160;27;20110;-76
2020/12/12 03:31:59;;;;;;;13.20;11.80;;;7.90;99.90;;;;;;2113965;28;20028;-77
2020/12/12 03:32:59;;;;;;;12.32;11.02;;;7.90;99.90;;;;;;2114154;28;20404;-76
2020/12/12 03:34:00;;;;;;;12.82;11.52;;;7.90;99.90;;;;;;2123330;27;20080;-75
2020/12/12 03:35:00;;;;;;;13.00;11.63;;;7.90;99.90;;;;;;2123252;27;20045;-77
2020/12/12 03:36:02;;;;;;;13.00;11.52;;;7.90;99.90;;;;;;2122922;27;20022;-78
2020/12/12 03:37:07;;;;;;;12.88;11.52;;;7.90;99.90;;;;;;2122959;27;20491;-77
2020/12/12 03:38:07;;;;;;;12.48;11.20;;;7.90;99.90;;;;;;2123471;27;20390;-75
2020/12/12 03:39:08;;;;;;;12.10;10.90;;;8.00;99.90;;;;;;2123052;27;20030;-78
2020/12/12 03:40:09;;;;;;;13.77;11.68;;;8.00;99.90;;;;;;2113935;28;20051;-76
2020/12/12 03:41:10;;;;;;;12.35;11.05;;;7.90;99.90;;;;;;2105661;28;20040;-78
2020/12/12 03:42:10;;;;;;;12.15;10.95;;;7.90;99.90;;;;;;2105251;28;20016;-78
2020/12/12 03:43:11;;;;;;;12.77;11.48;;;7.90;99.90;;;;;;2113671;28;20029;-76
2020/12/12 03:44:11;;;;;;;12.48;11.20;;;7.90;99.90;;;;;;2114341;28;20027;-76
2020/12/12 03:45:12;;;;;;;12.70;11.45;;;7.90;99.90;;;;;;2123102;27;20058;-77
2020/12/12 03:46:13;;;;;;;12.27;10.65;;;7.90;99.90;;;;;;2123201;27;20027;-78
2020/12/12 03:47:13;;;;;;;13.63;11.35;;;7.90;99.90;;;;;;2123040;27;20030;-77
2020/12/12 03:48:14;;;;;;;13.60;12.27;;;7.90;99.90;;;;;;2113910;28;20087;-79
2020/12/12 03:49:14;;;;;;;13.05;11.75;;;7.90;99.90;;;;;;2113858;28;20024;-78
2020/12/12 03:50:15;;;;;;;13.32;11.93;;;7.90;99.90;;;;;;2123551;27;20038;-76
2020/12/12 03:51:16;;;;;;;12.60;11.10;;;7.90;99.90;;;;;;2113764;28;20019;-79
2020/12/12 03:52:17;;;;;;;12.45;11.25;;;7.90;99.90;;;;;;2104976;28;20466;-75
2020/12/12 03:53:18;;;;;;;12.20;10.95;;;7.90;99.90;;;;;;2113557;28;20035;-78
2020/12/12 03:54:18;;;;;;;12.93;11.52;;;7.90;99.90;;;;;;2122898;27;20078;-78
2020/12/12 03:55:19;;;;;;;13.20;11.48;;;7.90;99.90;;;;;;2122893;27;20391;-75
2020/12/12 03:56:19;;;;;;;12.60;11.35;;;7.90;99.90;;;;;;2123218;27;20482;-75
2020/12/12 03:57:20;;;;;;;11.52;10.32;;;7.90;99.90;;;;;;2122894;27;20425;-77
2020/12/12 03:58:20;;;;;;;11.15;10.02;;;7.90;99.90;;;;;;2113794;28;20020;-76
2020/12/12 03:59:21;;;;;;;13.25;11.93;;;7.90;99.90;;;;;;2113837;28;20055;-77
2020/12/12 04:00:22;;;;;;;12.75;11.43;;;7.90;99.90;;;;;;2123422;27;20123;-78
2020/12/12 04:01:22;;;;;;;13.10;11.63;;;7.90;99.90;;;;;;2122519;27;20455;-77
2020/12/12 04:02:23;;;;;;;12.75;11.45;;;7.90;99.90;;;;;;2122360;27;20019;-76
2020/12/12 04:03:23;;;;;;;13.25;11.48;;;8.00;99.90;;;;;;2122453;27;20028;-75
2020/12/12 04:04:24;;;;;;;13.25;11.85;;;8.00;99.90;;;;;;2122585;27;20387;-77
2020/12/12 04:05:24;;;;;;;13.23;11.35;;;8.00;99.90;;;;;;2122612;27;20042;-78
2020/12/12 04:06:25;;;;;;;12.18;10.98;;;8.00;99.90;;;;;;2122662;27;20062;-77
2020/12/12 04:07:25;;;;;;;12.55;11.25;;;8.00;99.90;;;;;;2122313;27;20030;-77
2020/12/12 04:08:26;;;;;;;12.52;11.27;;;8.00;99.90;;;;;;2122643;27;20034;-78
2020/12/12 04:09:26;;;;;;;12.43;11.20;;;8.00;99.90;;;;;;2122482;27;20023;-77
2020/12/12 04:10:27;;;;;;;12.95;11.48;;;8.00;99.90;;;;;;2122494;27;20058;-78
2020/12/12 04:11:27;;;;;;;13.25;11.95;;;8.00;99.90;;;;;;2112315;28;20070;-77
2020/12/12 04:12:28;;;;;;;12.85;11.35;;;8.00;99.90;;;;;;2113435;28;20028;-78
2020/12/12 04:13:29;;;;;;;12.00;10.80;;;8.00;99.90;;;;;;2122040;27;20049;-78
2020/12/12 04:14:30;;;;;;;12.73;11.43;;;8.00;99.90;;;;;;2122346;27;20069;-79
2020/12/12 04:15:31;;;;;;;13.20;11.80;;;8.00;99.90;;;;;;2122379;27;20024;-76
2020/12/12 04:16:31;;;;;;;12.80;11.48;;;8.00;99.90;;;;;;2122204;27;20117;-78
2020/12/12 04:17:32;;;;;;;14.45;12.20;;;8.00;99.90;;;;;;2122047;27;20015;-76
2020/12/12 04:18:32;;;;;;;11.93;10.73;;;8.00;99.90;;;;;;2113134;28;20058;-79
2020/12/12 04:19:33;;;;;;;14.40;10.52;;;8.00;99.90;;;;;;2113138;28;20173;-77
2020/12/12 04:20:33;;;;;;;12.02;10.73;;;8.00;99.90;;;;;;2112973;28;20019;-78
2020/12/12 04:21:34;;;;;;;12.98;11.38;;;8.00;99.90;;;;;;2104327;28;20016;-77
2020/12/12 04:22:34;;;;;;;11.93;10.38;;;8.00;99.90;;;;;;2113199;28;20511;-77
2020/12/12 04:23:36;;;;;;;14.90;11.68;;;8.00;99.90;;;;;;2122060;27;20028;-77
2020/12/12 04:24:36;;;;;;;12.68;11.30;;;8.10;99.90;;;;;;2122310;27;20019;-79
2020/12/12 04:25:37;;;;;;;12.27;11.07;;;8.00;99.90;;;;;;2122329;27;20027;-79
2020/12/12 04:26:37;;;;;;;11.55;10.35;;;8.00;99.90;;;;;;2122028;27;20037;-77
2020/12/12 04:27:38;;;;;;;12.10;10.90;;;8.00;99.90;;;;;;2122422;27;20592;-77
2020/12/12 04:28:40;;;;;;;12.85;11.55;;;8.00;99.90;;;;;;2122247;27;20020;-76
2020/12/12 04:29:40;;;;;;;11.85;10.65;;;8.00;99.90;;;;;;2121877;27;20451;-78
2020/12/12 04:30:41;;;;;;;12.50;10.98;;;8.00;99.90;;;;;;2112878;28;20031;-76
2020/12/12 04:31:41;;;;;;;12.02;10.85;;;8.00;99.90;;;;;;2112443;28;20032;-76
2020/12/12 04:32:42;;;;;;;12.30;11.00;;;8.00;99.90;;;;;;2121933;27;20375;-77
2020/12/12 04:33:42;;;;;;;11.57;10.45;;;8.00;99.90;;;;;;2122240;27;20451;-77
2020/12/12 04:34:43;;;;;;;12.48;11.18;;;8.00;99.90;;;;;;2121938;27;20068;-76
2020/12/12 04:35:43;;;;;;;11.88;10.68;;;8.00;99.90;;;;;;2112971;28;20051;-77
2020/12/12 04:36:44;;;;;;;12.38;10.68;;;8.00;99.90;;;;;;2113141;28;20067;-78
2020/12/12 04:37:44;;;;;;;11.70;10.52;;;8.00;99.90;;;;;;2122160;27;20026;-76
2020/12/12 04:38:45;;;;;;;12.82;11.55;;;8.00;99.90;;;;;;2112724;28;20016;-78
2020/12/12 04:39:46;;;;;;;11.75;10.55;;;8.00;99.90;;;;;;2112856;28;20064;-77
2020/12/12 04:40:48;;;;;;;11.60;10.40;;;8.00;99.90;;;;;;2122181;27;20147;-79
2020/12/12 04:41:52;;;;;;;13.30;10.73;;;8.00;99.90;;;;;;2121502;27;20019;-76
2020/12/12 04:42:53;;;;;;;12.38;11.07;;;8.00;99.90;;;;;;2122019;27;20019;-77
2020/12/12 04:43:54;;;;;;;12.13;10.93;;;8.10;99.90;;;;;;2112908;28;20582;-77
2020/12/12 04:44:55;;;;;;;13.27;11.75;;;8.10;99.90;;;;;;2112822;28;20015;-78
2020/12/12 04:45:57;;;;;;;11.15;9.98;;;8.10;99.90;;;;;;2121958;27;20026;-78
2020/12/12 04:47:00;;;;;;;11.50;10.30;;;8.10;99.90;;;;;;2121950;27;20416;-78
2020/12/12 04:48:00;;;;;;;11.32;10.23;;;8.10;99.90;;;;;;2121954;27;20025;-76
2020/12/12 04:49:01;;;;;;;12.48;11.20;;;8.10;99.90;;;;;;2121949;27;20252;-76
2020/12/12 04:50:03;;;;;;;11.23;10.02;;;8.10;99.90;;;;;;2112846;28;20016;-78
2020/12/12 04:51:04;;;;;;;10.82;9.73;;;8.10;99.90;;;;;;2112879;27;20046;-77
2020/12/12 04:52:05;;;;;;;12.32;10.73;;;8.10;99.90;;;;;;2121433;27;20011;-76
2020/12/12 04:53:14;;;;;;;11.63;10.38;;;8.10;99.90;;;;;;2121989;27;20076;-78
2020/12/12 04:54:19;;;;;;;11.60;10.48;;;8.10;99.90;;;;;;2121656;27;20487;-77
2020/12/12 04:55:22;;;;;;;10.98;9.88;;;8.10;99.90;;;;;;2122071;27;20099;-77
2020/12/12 04:56:25;;;;;;;11.77;10.68;;;8.10;99.90;;;;;;2121817;27;20072;-79
2020/12/12 04:57:25;;;;;;;11.32;10.02;;;8.10;99.90;;;;;;2121830;27;20023;-77
2020/12/12 04:58:28;;;;;;;11.73;9.63;;;8.10;99.90;;;;;;2122010;27;20023;-77
2020/12/12 04:59:31;;;;;;;12.40;10.05;;;8.10;99.90;;;;;;2104222;28;20324;-77
2020/12/12 05:00:32;;;;;;;11.55;10.35;;;8.10;99.90;;;;;;2104522;28;20450;-76
2020/12/12 05:01:33;;;;;;;11.30;9.90;;;8.10;99.90;;;;;;2112143;28;20073;-79
2020/12/12 05:02:34;;;;;;;11.57;10.38;;;8.10;99.90;;;;;;2121923;27;20023;-76
2020/12/12 05:03:35;;;;;;;12.50;10.73;;;8.10;99.90;;;;;;2112775;28;20170;-77
2020/12/12 05:04:36;;;;;;;13.68;11.05;;;8.10;99.90;;;;;;2112622;28;20047;-78
2020/12/12 05:05:36;;;;;;;10.82;9.73;;;8.10;99.90;;;;;;2121834;27;20031;-77
2020/12/12 05:06:37;;;;;;;12.25;11.05;;;8.10;99.90;;;;;;2122119;27;20034;-76
2020/12/12 05:07:37;;;;;;;13.23;10.48;;;8.10;99.90;;;;;;2121471;27;20031;-77
2020/12/12 05:08:38;;;;;;;11.45;10.20;;;8.10;99.90;;;;;;2121678;27;20375;-78
2020/12/12 05:09:39;;;;;;;12.05;9.95;;;8.10;99.90;;;;;;2121808;27;20076;-79
2020/12/12 05:10:42;;;;;;;11.18;10.07;;;8.20;99.90;;;;;;2112371;28;20028;-76
2020/12/12 05:11:46;;;;;;;12.57;11.00;;;8.10;99.90;;;;;;2112314;27;20047;-79
2020/12/12 05:12:47;;;;;;;10.48;9.48;;;8.10;99.90;;;;;;2121744;27;20031;-76
2020/12/12 05:13:47;;;;;;;12.20;10.95;;;8.10;99.90;;;;;;2121455;27;20031;-76
2020/12/12 05:14:52;;;;;;;11.25;10.05;;;8.20;99.90;;;;;;2121636;27;20204;-79